createdAt,value
2023-05-16T00:00:09.225Z,15.35
2023-05-16T00:03:12.477Z,16.63
2023-05-16T00:06:15.661Z,13.38
2023-05-16T00:09:17.701Z,14.47
2023-05-16T00:12:19.954Z,13.50
2023-05-16T00:15:23.384Z,14.00
2023-05-16T00:18:26.260Z,15.88
2023-05-16T00:21:28.407Z,14.68
2023-05-16T00:24:30.419Z,15.37
2023-05-16T00:27:34.199Z,13.40
2023-05-16T00:30:36.445Z,15.85
2023-05-16T00:33:38.513Z,14.32
2023-05-16T00:36:40.610Z,16.63
2023-05-16T00:39:43.673Z,19.37
2023-05-16T00:42:45.855Z,12.07
2023-05-16T00:45:47.950Z,16.15
2023-05-16T00:48:50.159Z,13.43
2023-05-16T00:51:52.362Z,15.60
2023-05-16T00:54:54.488Z,13.93
2023-05-16T00:57:58.231Z,15.57
2023-05-16T01:01:02.279Z,14.48
2023-05-16T01:04:04.684Z,17.10
2023-05-16T01:07:07.063Z,17.25
2023-05-16T01:10:10.215Z,13.80
2023-05-16T01:13:17.327Z,14.03
2023-05-16T01:16:19.326Z,13.75
2023-05-16T01:19:33.133Z,13.40
2023-05-16T01:22:42.354Z,13.52
2023-05-16T01:25:57.349Z,13.50
2023-05-16T01:28:59.948Z,13.47
2023-05-16T01:32:02.099Z,15.43
2023-05-16T01:35:04.353Z,13.63
2023-05-16T01:38:26.034Z,16.73
2023-05-16T01:41:31.707Z,14.17
2023-05-16T01:44:36.175Z,13.73
2023-05-16T01:47:40.317Z,18.95
2023-05-16T01:50:45.894Z,13.80
2023-05-16T01:53:49.961Z,12.02
2023-05-16T01:56:53.589Z,14.90
2023-05-16T01:59:56.283Z,13.63
2023-05-16T02:02:58.357Z,17.08
2023-05-16T02:06:00.797Z,12.98
2023-05-16T02:09:02.813Z,14.25
2023-05-16T02:12:05.100Z,13.13
2023-05-16T02:15:07.531Z,13.37
2023-05-16T02:18:09.645Z,16.42
2023-05-16T02:21:11.757Z,17.27
2023-05-16T02:24:13.778Z,13.75
2023-05-16T02:27:15.782Z,16.97
2023-05-16T02:30:17.877Z,18.67
2023-05-16T02:33:19.925Z,18.20
2023-05-16T02:36:22.007Z,12.18
2023-05-16T02:39:24.055Z,18.13
2023-05-16T02:42:27.907Z,15.20
2023-05-16T02:45:29.963Z,14.68
2023-05-16T02:48:32.075Z,16.00
2023-05-16T02:51:34.124Z,17.35
2023-05-16T02:54:36.281Z,16.27
2023-05-16T02:57:38.342Z,18.03
2023-05-16T03:00:40.362Z,26.20
2023-05-16T03:03:44.827Z,32.05
2023-05-16T03:06:47.032Z,29.90
2023-05-16T03:09:49.203Z,31.73
2023-05-16T03:12:51.316Z,40.70
2023-05-16T03:15:53.342Z,31.73
2023-05-16T03:18:55.407Z,33.58
2023-05-16T03:21:57.754Z,23.77
2023-05-16T03:24:59.731Z,28.40
2023-05-16T03:28:02.253Z,30.27
2023-05-16T03:31:04.662Z,45.15
2023-05-16T03:34:07.015Z,85.75
2023-05-16T03:37:11.050Z,72.10
2023-05-16T03:40:13.345Z,112.00
2023-05-16T03:43:15.434Z,93.63
2023-05-16T03:46:17.643Z,101.30
2023-05-16T03:49:21.299Z,89.05
2023-05-16T03:52:23.371Z,82.87
2023-05-16T03:55:25.783Z,117.77
2023-05-16T03:58:28.329Z,77.13
2023-05-16T04:01:30.419Z,36.35
2023-05-16T04:04:32.430Z,29.42
2023-05-16T04:07:34.559Z,30.20
2023-05-16T04:10:36.608Z,26.93
2023-05-16T04:13:38.671Z,32.78
2023-05-16T04:16:40.897Z,24.58
2023-05-16T04:19:42.878Z,24.08
2023-05-16T04:22:44.930Z,28.37
2023-05-16T04:25:47.190Z,23.40
2023-05-16T04:28:49.278Z,16.98
2023-05-16T04:31:51.383Z,22.75
2023-05-16T04:34:54.317Z,22.10
2023-05-16T04:37:56.374Z,22.67
2023-05-16T04:40:58.746Z,18.77
2023-05-16T04:44:07.118Z,14.68
2023-05-16T04:47:09.339Z,15.73
2023-05-16T04:50:11.595Z,12.20
2023-05-16T04:53:15.172Z,12.23
2023-05-16T04:56:17.190Z,10.47
2023-05-16T04:59:19.322Z,10.88
2023-05-16T05:02:21.481Z,10.90
2023-05-16T05:05:23.791Z,12.27
2023-05-16T05:08:26.194Z,9.13
2023-05-16T05:11:28.341Z,8.47
2023-05-16T05:14:30.429Z,8.63
2023-05-16T05:17:32.725Z,10.10
2023-05-16T05:20:34.848Z,9.10
2023-05-16T05:23:36.940Z,9.60
2023-05-16T05:26:39.048Z,8.97
2023-05-16T05:29:41.115Z,9.57
2023-05-16T05:32:43.342Z,12.70
2023-05-16T05:35:45.438Z,10.32
2023-05-16T05:38:47.515Z,10.27
2023-05-16T05:41:49.669Z,11.80
2023-05-16T05:44:52.067Z,13.73
2023-05-16T05:47:54.502Z,15.07
2023-05-16T05:50:57.250Z,16.05
2023-05-16T05:53:59.724Z,17.80
2023-05-16T05:57:02.093Z,16.47
2023-05-16T06:00:05.510Z,21.80
2023-05-16T06:03:10.001Z,19.23
2023-05-16T06:06:12.333Z,22.80
2023-05-16T06:09:15.452Z,21.00
2023-05-16T06:12:17.727Z,22.23
2023-05-16T06:15:19.852Z,24.80
2023-05-16T06:18:22.098Z,19.05
2023-05-16T06:21:24.550Z,24.35
2023-05-16T06:24:26.605Z,21.50
2023-05-16T06:27:28.918Z,26.57
2023-05-16T06:30:30.941Z,24.70
2023-05-16T06:33:33.106Z,26.90
2023-05-16T06:36:35.497Z,20.55
2023-05-16T06:39:37.677Z,22.83
2023-05-16T06:42:42.778Z,23.73
2023-05-16T06:45:47.069Z,25.67
2023-05-16T06:48:49.218Z,24.33
2023-05-16T06:51:51.769Z,25.38
2023-05-16T06:54:54.048Z,24.20
2023-05-16T06:57:56.753Z,28.40
2023-05-16T07:00:59.007Z,21.15
2023-05-16T07:04:01.483Z,20.80
2023-05-16T07:07:04.836Z,18.15
2023-05-16T07:10:07.239Z,17.73
2023-05-16T07:13:09.355Z,16.37
2023-05-16T07:16:11.606Z,18.17
2023-05-16T07:19:13.985Z,18.08
2023-05-16T07:22:16.105Z,17.25
2023-05-16T07:25:18.586Z,13.93
2023-05-16T07:28:22.268Z,15.00
2023-05-16T07:31:24.443Z,13.35
2023-05-16T07:34:26.645Z,16.60
2023-05-16T07:37:30.562Z,15.98
2023-05-16T07:40:33.664Z,15.53
2023-05-16T07:43:36.991Z,13.10
2023-05-16T07:46:39.551Z,17.75
2023-05-16T07:49:42.184Z,15.40
2023-05-16T07:52:44.434Z,13.98
2023-05-16T07:55:46.616Z,16.90
2023-05-16T07:58:49.047Z,15.40
2023-05-16T08:01:51.594Z,16.17
2023-05-16T08:04:55.270Z,17.85
2023-05-16T08:07:57.606Z,19.35
2023-05-16T08:10:59.865Z,16.97
2023-05-16T08:14:02.246Z,17.63
2023-05-16T08:17:04.741Z,17.50
2023-05-16T08:20:08.222Z,19.25
2023-05-16T08:23:10.508Z,17.52
2023-05-16T08:26:12.844Z,15.53
2023-05-16T08:29:15.189Z,20.03
2023-05-16T08:32:17.416Z,20.40
2023-05-16T08:35:19.600Z,18.60
2023-05-16T08:38:21.827Z,18.35
2023-05-16T08:41:24.014Z,19.67
2023-05-16T08:44:29.151Z,16.90
2023-05-16T08:47:32.252Z,18.05
2023-05-16T08:50:35.846Z,15.85
2023-05-16T08:53:45.534Z,16.00
2023-05-16T08:56:50.313Z,16.93
2023-05-16T08:59:54.761Z,14.63
2023-05-16T09:02:58.059Z,15.73
2023-05-16T09:06:00.409Z,18.33
2023-05-16T09:09:02.941Z,15.10
2023-05-16T09:12:06.052Z,19.00
2023-05-16T09:15:09.865Z,17.20
2023-05-16T09:18:12.710Z,13.98
2023-05-16T09:21:16.238Z,16.35
2023-05-16T09:24:25.803Z,17.40
2023-05-16T09:27:31.164Z,16.23
2023-05-16T09:30:35.508Z,17.37
2023-05-16T09:33:37.733Z,17.90
2023-05-16T09:36:42.111Z,13.77
2023-05-16T09:39:49.919Z,13.88
2023-05-16T09:43:05.082Z,13.57
2023-05-16T09:46:07.601Z,18.37
2023-05-16T09:49:12.626Z,15.57
2023-05-16T09:52:15.225Z,13.35
2023-05-16T09:55:18.105Z,14.88
2023-05-16T09:58:20.261Z,15.43
2023-05-16T10:01:23.621Z,17.40
2023-05-16T10:04:25.793Z,17.48
2023-05-16T10:07:28.871Z,15.63
2023-05-16T10:10:31.703Z,17.27
2023-05-16T10:13:37.866Z,18.23
2023-05-16T10:16:42.544Z,16.67
2023-05-16T10:19:45.575Z,17.30
2023-05-16T10:22:48.719Z,15.38
2023-05-16T10:25:51.423Z,14.20
2023-05-16T10:28:54.146Z,13.20
2023-05-16T10:31:56.891Z,12.83
2023-05-16T10:35:02.627Z,15.30
2023-05-16T10:38:08.169Z,11.52
2023-05-16T10:41:10.535Z,16.38
2023-05-16T10:44:18.730Z,14.93
2023-05-16T10:47:20.965Z,14.13
2023-05-16T10:50:35.530Z,14.52
2023-05-16T10:53:37.690Z,14.52
2023-05-16T10:56:40.043Z,17.50
2023-05-16T10:59:43.870Z,18.77
2023-05-16T11:02:46.125Z,13.13
2023-05-16T11:05:52.427Z,14.93
2023-05-16T11:09:06.901Z,16.90
2023-05-16T11:12:09.921Z,18.13
2023-05-16T11:15:17.931Z,14.00
2023-05-16T11:18:20.139Z,11.67
2023-05-16T11:21:22.423Z,12.93
2023-05-16T11:24:31.670Z,14.20
2023-05-16T11:27:34.963Z,15.98
2023-05-16T11:30:37.115Z,11.60
2023-05-16T11:33:39.890Z,10.53
2023-05-16T11:36:42.730Z,11.40
2023-05-16T11:39:45.001Z,14.10
2023-05-16T11:42:47.974Z,13.20
2023-05-16T11:45:54.703Z,15.13
2023-05-16T11:48:57.173Z,16.37
2023-05-16T11:51:59.419Z,18.83
2023-05-16T11:55:01.742Z,12.88
2023-05-16T11:58:03.963Z,13.23
2023-05-16T12:01:06.859Z,16.23
2023-05-16T12:04:13.012Z,13.83
2023-05-16T12:07:15.377Z,18.35
2023-05-16T12:10:18.203Z,14.55
2023-05-16T12:13:21.531Z,18.33
2023-05-16T12:16:23.709Z,11.07
2023-05-16T12:19:26.095Z,13.73
2023-05-16T12:22:28.535Z,14.15
2023-05-16T12:25:36.209Z,11.98
2023-05-16T12:28:39.620Z,12.98
2023-05-16T12:31:42.103Z,16.67
2023-05-16T12:34:49.608Z,14.93
2023-05-16T12:37:53.031Z,14.13
2023-05-16T12:40:58.051Z,14.73
2023-05-16T12:44:17.722Z,14.07
2023-05-16T12:47:21.613Z,14.23
2023-05-16T12:50:26.945Z,12.50
2023-05-16T12:53:29.471Z,16.10
2023-05-16T12:56:31.491Z,13.23
2023-05-16T12:59:33.566Z,11.70
2023-05-16T13:02:35.672Z,15.87
2023-05-16T13:05:43.832Z,14.23
2023-05-16T13:08:49.948Z,14.32
2023-05-16T13:11:52.545Z,13.93
2023-05-16T13:14:54.990Z,11.70
2023-05-16T13:18:01.037Z,11.70
2023-05-16T13:21:06.269Z,13.83
2023-05-16T13:24:08.479Z,13.18
2023-05-16T13:27:10.611Z,14.77
2023-05-16T13:30:12.770Z,16.42
2023-05-16T13:33:14.889Z,13.17
2023-05-16T13:36:17.048Z,12.80
2023-05-16T13:39:19.296Z,14.15
2023-05-16T13:42:21.713Z,16.88
2023-05-16T13:45:23.929Z,18.50
2023-05-16T13:48:26.444Z,15.70
2023-05-16T13:51:28.531Z,13.77
2023-05-16T13:54:30.713Z,15.35
2023-05-16T13:57:33.395Z,17.55
2023-05-16T14:00:45.326Z,15.82
2023-05-16T14:03:49.620Z,20.90
2023-05-16T14:06:51.860Z,16.23
2023-05-16T14:09:53.970Z,17.30
2023-05-16T14:12:56.525Z,16.63
2023-05-16T14:15:58.891Z,12.05
2023-05-16T14:19:01.067Z,15.40
2023-05-16T14:22:03.393Z,14.43
2023-05-16T14:25:06.287Z,16.42
2023-05-16T14:28:08.340Z,18.83
2023-05-16T14:31:10.415Z,19.08
2023-05-16T14:34:12.855Z,27.33
2023-05-16T14:37:16.549Z,16.47
2023-05-16T14:40:18.716Z,14.55
2023-05-16T14:43:20.967Z,15.05
2023-05-16T14:46:23.059Z,14.80
2023-05-16T14:49:25.400Z,13.67
2023-05-16T14:52:27.446Z,16.07
2023-05-16T14:55:29.742Z,13.18
2023-05-16T14:58:32.060Z,12.60
2023-05-16T15:01:34.196Z,14.23
2023-05-16T15:04:37.172Z,16.47
2023-05-16T15:07:39.227Z,14.13
2023-05-16T15:10:41.354Z,14.15
2023-05-16T15:13:43.554Z,13.98
2023-05-16T15:16:47.440Z,13.90
2023-05-16T15:19:49.836Z,15.07
2023-05-16T15:22:51.947Z,15.57
2023-05-16T15:25:54.850Z,16.00
2023-05-16T15:28:56.997Z,13.95
2023-05-16T15:31:59.228Z,17.35
2023-05-16T15:35:01.334Z,18.60
2023-05-16T15:38:03.488Z,15.80
2023-05-16T15:41:18.716Z,16.30
2023-05-16T15:44:28.177Z,17.77
2023-05-16T15:47:30.346Z,14.05
2023-05-16T15:50:32.530Z,18.63
2023-05-16T15:53:34.802Z,19.23
2023-05-16T15:56:36.873Z,16.10
2023-05-16T15:59:39.185Z,16.90
2023-05-16T16:02:42.468Z,19.67
2023-05-16T16:05:44.672Z,14.77
2023-05-16T16:08:46.854Z,20.43
2023-05-16T16:11:49.809Z,21.67
2023-05-16T16:14:52.116Z,23.10
2023-05-16T16:17:54.190Z,19.65
2023-05-16T16:20:56.425Z,26.57
2023-05-16T16:23:58.658Z,16.73
2023-05-16T16:27:00.851Z,15.55
2023-05-16T16:30:02.892Z,15.60
2023-05-16T16:33:05.139Z,15.45
2023-05-16T16:36:07.413Z,17.47
2023-05-16T16:39:10.421Z,16.87
2023-05-16T16:42:12.480Z,22.30
2023-05-16T16:45:14.557Z,19.90
2023-05-16T16:48:16.914Z,20.95
2023-05-16T16:51:19.152Z,19.77
2023-05-16T16:54:22.464Z,18.60
2023-05-16T16:57:24.593Z,19.63
2023-05-16T17:00:26.725Z,14.75
2023-05-16T17:03:28.921Z,16.98
2023-05-16T17:06:31.124Z,18.50
2023-05-16T17:09:34.627Z,20.77
2023-05-16T17:12:40.849Z,22.48
2023-05-16T17:15:44.232Z,17.73
2023-05-16T17:18:46.371Z,19.33
2023-05-16T17:21:50.573Z,22.00
2023-05-16T17:24:53.041Z,21.47
2023-05-16T17:27:55.558Z,18.48
2023-05-16T17:30:57.803Z,18.05
2023-05-16T17:33:59.894Z,22.50
2023-05-16T17:37:01.938Z,18.00
2023-05-16T17:40:05.970Z,28.13
2023-05-16T17:43:08.111Z,24.35
2023-05-16T17:46:10.246Z,20.50
2023-05-16T17:49:13.007Z,18.23
2023-05-16T17:52:18.020Z,16.83
2023-05-16T17:55:20.410Z,17.27
2023-05-16T17:58:22.639Z,18.70
2023-05-16T18:01:24.737Z,19.23
2023-05-16T18:04:26.817Z,18.92
2023-05-16T18:07:28.968Z,19.40
2023-05-16T18:10:47.411Z,17.77
2023-05-16T18:13:53.787Z,20.92
2023-05-16T18:16:55.953Z,16.75
2023-05-16T18:19:58.726Z,15.52
2023-05-16T18:23:01.004Z,20.77
2023-05-16T18:26:03.241Z,20.63
2023-05-16T18:29:05.476Z,22.00
2023-05-16T18:32:08.037Z,21.10
2023-05-16T18:35:10.296Z,27.90
2023-05-16T18:38:24.493Z,20.47
2023-05-16T18:41:33.918Z,19.53
2023-05-16T18:44:36.278Z,24.02
2023-05-16T18:47:38.415Z,21.85
2023-05-16T18:50:40.895Z,26.88
2023-05-16T18:53:43.048Z,24.37
2023-05-16T18:56:46.225Z,24.70
2023-05-16T18:59:48.378Z,22.35
2023-05-16T19:02:51.176Z,23.35
2023-05-16T19:05:53.769Z,25.95
2023-05-16T19:08:56.176Z,21.83
2023-05-16T19:11:58.370Z,19.40
2023-05-16T19:15:00.978Z,21.55
2023-05-16T19:18:04.968Z,21.42
2023-05-16T19:21:13.519Z,20.15
2023-05-16T19:24:16.146Z,22.10
2023-05-16T19:27:18.320Z,22.50
2023-05-16T19:30:20.912Z,21.83
2023-05-16T19:33:23.022Z,19.15
2023-05-16T19:36:25.135Z,22.35
2023-05-16T19:39:27.185Z,24.13
2023-05-16T19:42:29.252Z,22.57
2023-05-16T19:45:31.337Z,22.23
2023-05-16T19:48:33.535Z,27.38
2023-05-16T19:51:41.813Z,22.75
2023-05-16T19:54:44.376Z,24.30
2023-05-16T19:57:46.676Z,21.33
2023-05-16T20:00:48.783Z,21.33
2023-05-16T20:03:51.023Z,22.13
2023-05-16T20:06:53.119Z,25.02
2023-05-16T20:14:06.660Z,26.60
2023-05-16T20:17:08.726Z,24.40
2023-05-16T20:20:11.076Z,29.73
2023-05-16T20:27:52.931Z,25.70
2023-05-16T20:35:33.864Z,23.27
2023-05-16T20:38:35.985Z,26.17
2023-05-16T20:41:38.094Z,28.70
2023-05-16T20:44:41.257Z,26.07
2023-05-16T20:47:43.483Z,26.50
2023-05-16T20:50:45.850Z,30.63
2023-05-16T20:53:47.861Z,24.77
2023-05-16T20:56:50.119Z,29.73
2023-05-16T20:59:52.236Z,30.23
2023-05-16T21:02:54.371Z,35.77
2023-05-16T21:05:56.462Z,29.48
2023-05-16T21:08:58.567Z,27.15
2023-05-16T21:12:00.730Z,28.58
2023-05-16T21:15:03.703Z,27.60
2023-05-16T21:18:06.080Z,30.07
2023-05-16T21:21:08.195Z,28.13
2023-05-16T21:24:10.268Z,26.02
2023-05-16T21:27:12.376Z,27.88
2023-05-16T21:30:14.594Z,25.13
2023-05-16T21:33:16.821Z,29.13
2023-05-16T21:36:19.245Z,25.92
2023-05-16T21:39:21.343Z,23.63
2023-05-16T21:42:23.562Z,24.48
2023-05-16T21:45:25.845Z,26.50
2023-05-16T21:48:28.242Z,24.67
2023-05-16T21:51:30.894Z,26.98
2023-05-16T21:54:32.976Z,24.42
2023-05-16T21:57:35.109Z,28.40
2023-05-16T22:00:37.188Z,26.60
2023-05-16T22:03:39.444Z,22.40
2023-05-16T22:06:41.666Z,30.20
2023-05-16T22:09:43.736Z,30.13
2023-05-16T22:12:45.781Z,27.60
2023-05-16T22:15:59.467Z,27.17
2023-05-16T22:19:06.827Z,25.73
2023-05-16T22:22:09.257Z,27.65
2023-05-16T22:25:11.308Z,28.30
2023-05-16T22:28:13.437Z,33.20
2023-05-16T22:31:15.589Z,28.03
2023-05-16T22:34:17.816Z,36.70
2023-05-16T22:37:20.020Z,32.85
2023-05-16T22:40:22.144Z,34.35
2023-05-16T22:43:24.434Z,34.47
2023-05-16T22:46:26.418Z,32.13
2023-05-16T22:49:28.518Z,36.27
2023-05-16T22:52:30.657Z,36.20
2023-05-16T22:55:33.954Z,34.45
2023-05-16T22:58:36.012Z,32.85
2023-05-16T23:01:38.102Z,32.67
2023-05-16T23:04:40.263Z,36.23
2023-05-16T23:07:42.319Z,37.55
2023-05-16T23:10:44.383Z,36.97
2023-05-16T23:13:46.656Z,45.65
2023-05-16T23:16:48.804Z,52.37
2023-05-16T23:19:50.958Z,50.63
2023-05-16T23:22:53.045Z,47.72
2023-05-16T23:25:55.055Z,52.60
2023-05-16T23:28:57.141Z,52.38
2023-05-16T23:31:59.264Z,60.40
2023-05-16T23:35:01.347Z,58.40
2023-05-16T23:38:03.457Z,51.70
2023-05-16T23:41:05.575Z,43.85
2023-05-16T23:44:07.665Z,41.25
2023-05-16T23:47:09.781Z,37.93
2023-05-16T23:50:11.831Z,31.43
2023-05-16T23:53:13.939Z,29.83
2023-05-16T23:56:16.021Z,29.50
2023-05-16T23:59:19.162Z,27.98
